sensor_id;sensor_type;location;lat;lon;timestamp;P1;durP1;ratioP1;P2;durP2;ratioP2
19495;SDS011;9888;48.606;9.630;2022-09-28T20:41:53;6.73;;;2.20;;
19495;SDS011;9888;48.606;9.630;2022-09-28T20:44:22;6.73;;;2.00;;
19495;SDS011;9888;48.606;9.630;2022-09-28T20:46:51;6.27;;;1.90;;
19495;SDS011;9888;48.606;9.630;2022-09-28T20:49:19;5.80;;;2.03;;
19495;SDS011;9888;48.606;9.630;2022-09-28T20:51:46;7.20;;;2.30;;
19495;SDS011;9888;48.606;9.630;2022-09-28T20:57:39;5.10;;;1.80;;
19495;SDS011;9888;48.606;9.630;2022-09-28T21:00:07;6.00;;;1.70;;
19495;SDS011;9888;48.606;9.630;2022-09-28T21:02:42;5.50;;;1.83;;
19495;SDS011;9888;48.606;9.630;2022-09-28T21:05:09;6.37;;;2.27;;
19495;SDS011;9888;48.606;9.630;2022-09-28T21:07:38;8.83;;;2.40;;
19495;SDS011;9888;48.606;9.630;2022-09-28T21:10:06;7.07;;;2.00;;
19495;SDS011;9888;48.606;9.630;2022-09-28T21:12:34;7.50;;;2.40;;
19495;SDS011;9888;48.606;9.630;2022-09-28T21:15:03;7.07;;;2.60;;
19495;SDS011;9888;48.606;9.630;2022-09-28T21:17:36;6.33;;;2.60;;
19495;SDS011;9888;48.606;9.630;2022-09-28T21:20:05;9.43;;;2.90;;
19495;SDS011;9888;48.606;9.630;2022-09-28T21:22:33;8.33;;;2.53;;
19495;SDS011;9888;48.606;9.630;2022-09-28T21:25:17;7.30;;;3.07;;
19495;SDS011;9888;48.606;9.630;2022-09-28T21:31:07;8.90;;;3.10;;
19495;SDS011;9888;48.606;9.630;2022-09-28T21:33:36;8.10;;;3.70;;
19495;SDS011;9888;48.606;9.630;2022-09-28T21:36:06;8.40;;;3.50;;
19495;SDS011;9888;48.606;9.630;2022-09-28T21:42:02;8.03;;;3.53;;
19495;SDS011;9888;48.606;9.630;2022-09-28T21:44:29;8.43;;;3.30;;
19495;SDS011;9888;48.606;9.630;2022-09-28T21:46:59;14.30;;;3.67;;
19495;SDS011;9888;48.606;9.630;2022-09-28T21:49:40;7.43;;;2.70;;
19495;SDS011;9888;48.606;9.630;2022-09-28T21:52:31;7.70;;;2.97;;
19495;SDS011;9888;48.606;9.630;2022-09-28T21:55:06;7.90;;;3.30;;
19495;SDS011;9888;48.606;9.630;2022-09-28T22:13:06;6.90;;;2.83;;
19495;SDS011;9888;48.606;9.630;2022-09-28T22:15:34;8.13;;;3.33;;
19495;SDS011;9888;48.606;9.630;2022-09-28T22:18:02;8.07;;;2.33;;
19495;SDS011;9888;48.606;9.630;2022-09-28T22:20:29;6.63;;;2.30;;
19495;SDS011;9888;48.606;9.630;2022-09-28T22:22:56;8.03;;;2.50;;
19495;SDS011;9888;48.606;9.630;2022-09-28T22:25:23;8.77;;;2.77;;
19495;SDS011;9888;48.606;9.630;2022-09-28T22:27:50;7.27;;;2.70;;
19495;SDS011;9888;48.606;9.630;2022-09-28T22:30:18;12.23;;;2.63;;
19495;SDS011;9888;48.606;9.630;2022-09-28T22:32:45;7.43;;;2.43;;
19495;SDS011;9888;48.606;9.630;2022-09-28T22:35:14;6.70;;;2.40;;
19495;SDS011;9888;48.606;9.630;2022-09-28T22:37:41;8.40;;;2.60;;
19495;SDS011;9888;48.606;9.630;2022-09-28T22:40:09;7.77;;;2.57;;
19495;SDS011;9888;48.606;9.630;2022-09-28T22:42:37;7.03;;;2.73;;
19495;SDS011;9888;48.606;9.630;2022-09-28T22:45:13;6.83;;;2.60;;
19495;SDS011;9888;48.606;9.630;2022-09-28T22:47:44;6.70;;;2.73;;
19495;SDS011;9888;48.606;9.630;2022-09-28T22:50:11;8.10;;;2.67;;
19495;SDS011;9888;48.606;9.630;2022-09-28T22:52:39;8.60;;;2.80;;
19495;SDS011;9888;48.606;9.630;2022-09-28T22:55:07;7.30;;;2.83;;
19495;SDS011;9888;48.606;9.630;2022-09-28T22:57:34;9.67;;;3.00;;
19495;SDS011;9888;48.606;9.630;2022-09-28T23:00:02;8.00;;;2.93;;
19495;SDS011;9888;48.606;9.630;2022-09-28T23:02:30;7.93;;;3.20;;
19495;SDS011;9888;48.606;9.630;2022-09-28T23:04:57;6.97;;;2.63;;
19495;SDS011;9888;48.606;9.630;2022-09-28T23:07:24;6.37;;;2.77;;
19495;SDS011;9888;48.606;9.630;2022-09-28T23:09:52;7.20;;;2.70;;
19495;SDS011;9888;48.606;9.630;2022-09-28T23:12:22;7.03;;;2.20;;
19495;SDS011;9888;48.606;9.630;2022-09-28T23:14:49;7.50;;;2.40;;
19495;SDS011;9888;48.606;9.630;2022-09-28T23:17:18;7.40;;;2.87;;
19495;SDS011;9888;48.606;9.630;2022-09-28T23:19:46;6.57;;;2.47;;
19495;SDS011;9888;48.606;9.630;2022-09-28T23:22:13;7.63;;;2.20;;
19495;SDS011;9888;48.606;9.630;2022-09-28T23:24:41;6.40;;;2.17;;
19495;SDS011;9888;48.606;9.630;2022-09-28T23:27:42;6.57;;;2.53;;
19495;SDS011;9888;48.606;9.630;2022-09-28T23:30:11;7.50;;;2.60;;
19495;SDS011;9888;48.606;9.630;2022-09-28T23:32:40;7.03;;;2.83;;
19495;SDS011;9888;48.606;9.630;2022-09-28T23:35:08;7.33;;;2.40;;
19495;SDS011;9888;48.606;9.630;2022-09-28T23:37:37;6.43;;;2.37;;
19495;SDS011;9888;48.606;9.630;2022-09-28T23:40:05;9.00;;;3.00;;
19495;SDS011;9888;48.606;9.630;2022-09-28T23:42:34;7.80;;;2.80;;
19495;SDS011;9888;48.606;9.630;2022-09-28T23:45:02;8.00;;;2.70;;
19495;SDS011;9888;48.606;9.630;2022-09-28T23:47:30;8.00;;;2.93;;
19495;SDS011;9888;48.606;9.630;2022-09-28T23:49:57;7.80;;;3.00;;
19495;SDS011;9888;48.606;9.630;2022-09-28T23:52:26;7.67;;;3.20;;
19495;SDS011;9888;48.606;9.630;2022-09-28T23:54:54;7.73;;;2.93;;
19495;SDS011;9888;48.606;9.630;2022-09-28T23:57:21;8.97;;;3.10;;
19495;SDS011;9888;48.606;9.630;2022-09-28T23:59:49;8.03;;;3.00;;
